createdAt,value
2023-01-04T00:01:20.939Z,4.60
2023-01-04T00:03:47.860Z,4.70
2023-01-04T00:06:16.429Z,4.60
2023-01-04T00:08:45.389Z,4.60
2023-01-04T00:11:25.777Z,4.60
2023-01-04T00:13:56.457Z,4.60
2023-01-04T00:16:25.265Z,4.60
2023-01-04T00:18:55.113Z,5.20
2023-01-04T00:21:27.592Z,4.60
2023-01-04T00:23:56.869Z,4.60
2023-01-04T00:26:29.369Z,4.60
2023-01-04T00:29:01.388Z,4.60
2023-01-04T00:31:29.119Z,4.60
2023-01-04T00:33:59.865Z,4.60
2023-01-04T00:36:27.942Z,4.60
2023-01-04T00:39:08.382Z,4.60
2023-01-04T00:42:01.207Z,4.60
2023-01-04T00:44:34.468Z,4.60
2023-01-04T00:47:05.742Z,4.60
2023-01-04T00:49:34.659Z,4.60
2023-01-04T00:52:01.355Z,4.50
2023-01-04T00:54:28.325Z,4.50
2023-01-04T00:56:57.559Z,4.60
2023-01-04T00:59:29.050Z,4.60
2023-01-04T01:01:55.822Z,4.60
2023-01-04T01:04:24.274Z,4.60
2023-01-04T01:06:51.829Z,4.60
2023-01-04T01:09:19.291Z,4.60
2023-01-04T01:11:45.975Z,4.60
2023-01-04T01:14:19.563Z,4.60
2023-01-04T01:17:02.475Z,4.60
2023-01-04T01:19:29.583Z,4.60
2023-01-04T01:21:57.412Z,4.60
2023-01-04T01:24:24.242Z,4.60
2023-01-04T01:26:50.927Z,4.50
2023-01-04T01:29:17.557Z,4.50
2023-01-04T01:31:44.382Z,4.60
2023-01-04T01:34:11.429Z,4.60
2023-01-04T01:36:40.646Z,4.60
2023-01-04T01:39:07.817Z,4.60
2023-01-04T01:41:35.935Z,4.60
2023-01-04T01:44:40.223Z,4.60
2023-01-04T01:47:17.053Z,4.60
2023-01-04T01:49:47.952Z,4.60
2023-01-04T01:52:22.940Z,4.60
2023-01-04T01:54:54.234Z,4.50
2023-01-04T01:57:24.806Z,4.50
2023-01-04T01:59:56.333Z,4.60
2023-01-04T02:02:25.457Z,4.60
2023-01-04T02:04:52.983Z,4.60
2023-01-04T02:07:24.744Z,4.60
2023-01-04T02:09:51.732Z,4.60
2023-01-04T02:12:18.620Z,4.60
2023-01-04T02:14:54.005Z,4.50
2023-01-04T02:17:28.778Z,4.50
2023-01-04T02:20:19.321Z,4.50
2023-01-04T02:22:51.736Z,4.50
2023-01-04T02:25:37.095Z,4.50
2023-01-04T02:28:16.194Z,4.50
2023-01-04T02:30:58.799Z,4.40
2023-01-04T02:33:46.206Z,4.40
2023-01-04T02:36:33.438Z,4.40
2023-01-04T02:39:18.704Z,4.40
2023-01-04T02:42:01.520Z,4.40
2023-01-04T02:45:05.919Z,4.40
2023-01-04T02:47:55.685Z,4.40
2023-01-04T02:50:35.978Z,4.40
2023-01-04T02:53:18.792Z,4.40
2023-01-04T02:56:15.735Z,4.40
2023-01-04T02:59:10.091Z,4.40
2023-01-04T03:02:03.345Z,4.40
2023-01-04T03:05:33.704Z,4.30
2023-01-04T03:08:19.128Z,4.40
2023-01-04T03:11:31.058Z,4.30
2023-01-04T03:14:31.800Z,4.30
2023-01-04T03:16:59.100Z,4.30
2023-01-04T03:19:46.900Z,4.30
2023-01-04T03:22:38.446Z,4.30
2023-01-04T03:25:46.883Z,4.30
2023-01-04T03:28:34.200Z,4.30
2023-01-04T03:31:40.832Z,4.30
2023-01-04T03:34:26.211Z,4.20
2023-01-04T03:37:02.845Z,4.20
2023-01-04T03:40:34.333Z,4.20
2023-01-04T03:43:39.104Z,4.20
2023-01-04T03:46:31.631Z,4.20
2023-01-04T03:49:12.819Z,4.20
2023-01-04T03:51:40.339Z,4.20
2023-01-04T03:54:09.838Z,4.20
2023-01-04T03:56:41.712Z,4.20
2023-01-04T03:59:09.688Z,4.20
2023-01-04T04:01:37.755Z,4.30
2023-01-04T04:04:26.034Z,4.20
2023-01-04T04:07:13.875Z,4.20
2023-01-04T04:09:40.620Z,4.20
2023-01-04T04:12:07.351Z,4.20
2023-01-04T04:14:34.033Z,4.20
2023-01-04T04:17:02.983Z,4.20
2023-01-04T04:19:29.855Z,4.20
2023-01-04T04:21:59.486Z,4.20
2023-01-04T04:24:29.591Z,4.20
2023-01-04T04:26:56.386Z,4.20
2023-01-04T04:29:24.611Z,4.20
2023-01-04T04:31:51.519Z,4.20
2023-01-04T04:34:20.452Z,4.20
2023-01-04T04:36:47.174Z,4.20
2023-01-04T04:39:13.957Z,4.20
2023-01-04T04:41:43.369Z,4.20
2023-01-04T04:44:14.161Z,4.20
2023-01-04T04:46:41.639Z,4.20
2023-01-04T04:49:09.433Z,4.20
2023-01-04T04:51:37.341Z,4.20
2023-01-04T04:54:07.912Z,4.20
2023-01-04T04:56:36.624Z,4.20
2023-01-04T04:59:04.845Z,4.20
2023-01-04T05:01:31.854Z,4.20
2023-01-04T05:04:01.107Z,4.20
2023-01-04T05:06:28.378Z,4.20
2023-01-04T05:08:55.157Z,4.20
2023-01-04T05:11:41.780Z,4.20
2023-01-04T05:14:11.642Z,4.20
2023-01-04T05:16:40.900Z,4.20
2023-01-04T05:19:09.835Z,4.20
2023-01-04T05:21:39.146Z,4.20
2023-01-04T05:24:09.217Z,4.20
2023-01-04T05:26:38.445Z,4.20
2023-01-04T05:29:05.592Z,4.20
2023-01-04T05:31:32.744Z,4.30
2023-01-04T05:34:01.720Z,4.20
2023-01-04T05:36:28.378Z,4.20
2023-01-04T05:38:55.022Z,4.20
2023-01-04T05:41:40.360Z,4.20
2023-01-04T05:44:07.067Z,4.20
2023-01-04T05:46:36.374Z,4.20
2023-01-04T05:49:03.175Z,4.20
2023-01-04T05:51:29.902Z,4.20
2023-01-04T05:53:58.998Z,4.20
2023-01-04T05:56:27.828Z,4.20
2023-01-04T05:58:56.917Z,4.20
2023-01-04T06:01:23.610Z,4.20
2023-01-04T06:03:57.917Z,4.30
2023-01-04T06:06:24.635Z,4.30
2023-01-04T06:08:53.743Z,4.30
2023-01-04T06:11:27.355Z,4.30
2023-01-04T06:13:56.518Z,4.30
2023-01-04T06:16:23.585Z,4.30
2023-01-04T06:18:52.866Z,4.40
2023-01-04T06:21:20.166Z,4.40
2023-01-04T06:23:49.439Z,4.40
2023-01-04T06:26:16.457Z,4.40
2023-01-04T06:28:43.368Z,4.40
2023-01-04T06:31:14.145Z,4.40
2023-01-04T06:33:40.914Z,4.40
2023-01-04T06:36:08.087Z,4.50
2023-01-04T06:38:47.573Z,4.50
2023-01-04T06:41:14.348Z,4.50
2023-01-04T06:43:43.552Z,4.50
2023-01-04T06:46:10.648Z,4.50
2023-01-04T06:48:37.381Z,4.50
2023-01-04T06:51:04.315Z,4.60
2023-01-04T06:53:31.003Z,4.60
2023-01-04T06:55:58.137Z,4.60
2023-01-04T06:58:25.150Z,4.60
2023-01-04T07:00:55.735Z,4.60
2023-01-04T07:03:23.395Z,4.80
2023-01-04T07:05:50.352Z,4.70
2023-01-04T07:08:17.140Z,4.70
2023-01-04T07:10:44.177Z,4.70
2023-01-04T07:13:11.275Z,5.10
2023-01-04T07:15:41.179Z,4.80
2023-01-04T07:18:11.801Z,4.80
2023-01-04T07:20:41.030Z,4.90
2023-01-04T07:23:08.742Z,4.90
2023-01-04T07:25:37.845Z,4.90
2023-01-04T07:28:07.037Z,4.90
2023-01-04T07:30:34.180Z,5.00
2023-01-04T07:33:06.321Z,5.00
2023-01-04T07:35:35.334Z,5.00
2023-01-04T07:38:05.032Z,5.00
2023-01-04T07:40:33.967Z,5.00
2023-01-04T07:43:03.148Z,5.10
2023-01-04T07:45:29.895Z,5.10
2023-01-04T07:47:58.276Z,5.10
2023-01-04T07:50:24.960Z,5.10
2023-01-04T07:52:51.668Z,5.60
2023-01-04T07:55:18.421Z,5.20
2023-01-04T07:57:47.822Z,5.20
2023-01-04T08:00:17.380Z,5.20
2023-01-04T08:02:44.293Z,5.20
2023-01-04T08:05:11.302Z,5.30
2023-01-04T08:07:40.245Z,5.20
2023-01-04T08:10:09.886Z,5.30
2023-01-04T08:12:36.630Z,5.30
2023-01-04T08:15:05.914Z,5.30
2023-01-04T08:17:32.675Z,5.40
2023-01-04T08:20:01.519Z,5.40
2023-01-04T08:22:28.678Z,5.70
2023-01-04T08:24:59.808Z,5.50
2023-01-04T08:27:26.510Z,5.50
2023-01-04T08:29:53.544Z,5.50
2023-01-04T08:32:20.357Z,5.50
2023-01-04T08:34:47.049Z,5.50
2023-01-04T08:37:14.190Z,5.60
2023-01-04T08:39:48.652Z,5.70
2023-01-04T08:42:25.144Z,5.60
2023-01-04T08:44:59.812Z,5.70
2023-01-04T08:47:31.372Z,5.60
2023-01-04T08:50:06.575Z,5.70
2023-01-04T08:52:36.873Z,5.70
2023-01-04T08:55:12.278Z,5.80
2023-01-04T08:57:39.918Z,5.80
2023-01-04T09:00:12.795Z,5.80
2023-01-04T09:02:44.587Z,5.80
2023-01-04T09:05:22.212Z,5.90
2023-01-04T09:07:49.738Z,5.90
2023-01-04T09:10:21.280Z,5.90
2023-01-04T09:12:48.006Z,6.00
2023-01-04T09:15:14.772Z,6.00
2023-01-04T09:17:57.923Z,6.10
2023-01-04T09:20:28.768Z,6.10
2023-01-04T09:22:58.816Z,6.10
2023-01-04T09:25:25.636Z,6.20
2023-01-04T09:27:52.843Z,6.30
2023-01-04T09:30:19.574Z,6.30
2023-01-04T09:32:46.641Z,6.30
2023-01-04T09:35:13.465Z,6.40
2023-01-04T09:37:42.415Z,6.40
2023-01-04T09:40:20.821Z,6.40
2023-01-04T09:42:49.202Z,6.50
2023-01-04T09:45:36.960Z,6.50
2023-01-04T09:48:21.619Z,6.50
2023-01-04T09:51:00.374Z,6.60
2023-01-04T09:53:39.415Z,6.60
2023-01-04T09:56:23.772Z,6.70
2023-01-04T09:58:52.381Z,6.70
2023-01-04T10:01:24.136Z,6.70
2023-01-04T10:04:15.604Z,6.70
2023-01-04T10:06:44.925Z,6.80
2023-01-04T10:09:17.640Z,7.30
2023-01-04T10:12:22.056Z,6.80
2023-01-04T10:14:58.709Z,6.90
2023-01-04T10:18:29.692Z,6.90
2023-01-04T10:23:36.842Z,7.00
2023-01-04T10:26:03.448Z,7.10
2023-01-04T10:28:32.804Z,7.10
2023-01-04T10:31:39.385Z,7.20
2023-01-04T10:34:25.616Z,7.30
2023-01-04T10:37:00.995Z,7.30
2023-01-04T10:39:36.053Z,7.40
2023-01-04T10:42:41.295Z,7.50
2023-01-04T10:45:21.824Z,7.50
2023-01-04T10:48:13.210Z,7.60
2023-01-04T10:50:45.536Z,7.70
2023-01-04T10:53:21.505Z,7.80
2023-01-04T10:56:25.813Z,7.80
2023-01-04T10:59:09.836Z,7.90
2023-01-04T11:01:43.127Z,7.90
2023-01-04T11:04:30.221Z,8.00
2023-01-04T11:07:02.390Z,8.00
2023-01-04T11:09:55.105Z,8.00
2023-01-04T11:12:23.388Z,8.00
2023-01-04T11:14:51.883Z,8.10
2023-01-04T11:17:24.237Z,8.00
2023-01-04T11:19:51.012Z,8.10
2023-01-04T11:22:38.396Z,8.00
2023-01-04T11:28:12.062Z,8.20
2023-01-04T11:30:54.089Z,8.20
2023-01-04T11:33:24.046Z,8.20
2023-01-04T11:35:59.398Z,8.20
2023-01-04T11:38:32.823Z,8.20
2023-01-04T11:40:59.497Z,8.20
2023-01-04T11:43:29.081Z,8.30
2023-01-04T11:46:05.243Z,8.30
2023-01-04T11:48:35.249Z,8.30
2023-01-04T11:51:05.130Z,8.30
2023-01-04T11:53:33.247Z,8.30
2023-01-04T11:56:22.893Z,11.50
2023-01-04T11:59:08.665Z,8.30
2023-01-04T12:01:41.776Z,8.40
2023-01-04T12:04:35.641Z,8.40
2023-01-04T12:07:15.840Z,8.40
2023-01-04T12:09:42.640Z,8.40
2023-01-04T12:12:15.955Z,8.40
2023-01-04T12:14:48.399Z,8.40
2023-01-04T12:17:36.799Z,8.40
2023-01-04T12:20:19.847Z,8.40
2023-01-04T12:22:47.462Z,8.70
2023-01-04T12:25:32.817Z,8.40
2023-01-04T12:27:59.775Z,8.40
2023-01-04T12:30:36.169Z,8.40
2023-01-04T12:33:31.733Z,8.50
2023-01-04T12:36:04.780Z,8.50
2023-01-04T12:39:03.549Z,9.30
2023-01-04T12:41:38.139Z,8.50
2023-01-04T12:44:36.898Z,8.50
2023-01-04T12:47:43.414Z,8.50
2023-01-04T12:50:14.525Z,8.50
2023-01-04T12:53:19.401Z,8.50
2023-01-04T12:55:45.490Z,8.50
2023-01-04T13:01:29.171Z,8.70
2023-01-04T13:04:06.246Z,8.60
2023-01-04T13:06:42.518Z,8.70
2023-01-04T13:09:27.067Z,8.70
2023-01-04T13:12:03.021Z,8.70
2023-01-04T13:14:49.064Z,8.70
2023-01-04T13:17:20.182Z,8.70
2023-01-04T13:19:50.720Z,8.80
2023-01-04T13:22:38.195Z,8.80
2023-01-04T13:25:14.681Z,8.80
2023-01-04T13:28:04.857Z,8.80
2023-01-04T13:30:39.845Z,8.70
2023-01-04T13:33:29.620Z,8.80
2023-01-04T13:36:11.031Z,8.80
2023-01-04T13:38:40.529Z,8.90
2023-01-04T13:41:20.936Z,7.00
2023-01-04T13:43:54.463Z,8.80
2023-01-04T13:46:26.761Z,8.80
2023-01-04T13:49:00.430Z,8.80
2023-01-04T13:51:36.896Z,8.80
2023-01-04T13:54:19.744Z,8.90
2023-01-04T13:56:51.628Z,8.80
2023-01-04T13:59:22.273Z,8.90
2023-01-04T14:01:50.251Z,8.90
2023-01-04T14:04:28.791Z,8.90
2023-01-04T14:07:01.068Z,8.90
2023-01-04T14:09:36.564Z,8.90
2023-01-04T14:12:15.930Z,8.90
2023-01-04T14:14:47.702Z,8.90
2023-01-04T14:17:34.166Z,8.90
2023-01-04T14:20:28.942Z,8.90
2023-01-04T14:23:01.890Z,8.90
2023-01-04T14:25:34.147Z,8.80
2023-01-04T14:28:30.222Z,8.90
2023-01-04T14:31:00.080Z,9.10
2023-01-04T14:33:50.467Z,8.90
2023-01-04T14:36:30.602Z,9.00
2023-01-04T14:39:13.072Z,9.00
2023-01-04T14:41:52.617Z,9.10
2023-01-04T14:44:24.453Z,9.10
2023-01-04T14:46:54.487Z,9.00
2023-01-04T14:49:22.223Z,9.00
2023-01-04T14:51:54.808Z,9.00
2023-01-04T14:54:25.367Z,9.00
2023-01-04T14:56:54.552Z,9.00
2023-01-04T14:59:23.820Z,9.00
2023-01-04T15:01:54.229Z,9.00
2023-01-04T15:04:23.786Z,9.00
2023-01-04T15:06:56.355Z,9.30
2023-01-04T15:09:23.264Z,9.30
2023-01-04T15:11:50.279Z,8.90
2023-01-04T15:14:19.634Z,9.00
2023-01-04T15:16:47.184Z,9.00
2023-01-04T15:19:17.056Z,9.00
2023-01-04T15:21:46.449Z,8.90
2023-01-04T15:24:13.275Z,9.00
2023-01-04T15:26:40.905Z,8.90
2023-01-04T15:29:08.661Z,9.00
2023-01-04T15:31:39.731Z,8.90
2023-01-04T15:34:12.184Z,9.00
2023-01-04T15:36:41.058Z,9.00
2023-01-04T15:39:17.004Z,8.90
2023-01-04T15:42:04.304Z,9.40
2023-01-04T15:44:31.137Z,8.90
2023-01-04T15:47:00.251Z,8.90
2023-01-04T15:49:30.712Z,8.90
2023-01-04T15:52:00.087Z,9.10
2023-01-04T15:54:28.237Z,8.90
2023-01-04T15:56:55.940Z,8.90
2023-01-04T15:59:22.915Z,9.00
2023-01-04T16:01:49.704Z,9.00
2023-01-04T16:04:16.464Z,9.00
2023-01-04T16:06:43.368Z,9.10
2023-01-04T16:09:10.412Z,9.30
2023-01-04T16:11:37.275Z,9.20
2023-01-04T16:14:04.035Z,8.90
2023-01-04T16:16:32.683Z,8.90
2023-01-04T16:18:59.592Z,8.90
2023-01-04T16:21:28.607Z,9.30
2023-01-04T16:24:05.228Z,8.90
2023-01-04T16:26:36.427Z,8.90
2023-01-04T16:29:03.821Z,8.90
2023-01-04T16:31:35.318Z,8.90
2023-01-04T16:34:05.517Z,8.90
2023-01-04T16:36:32.659Z,12.20
2023-01-04T16:39:01.270Z,8.90
2023-01-04T16:41:30.659Z,8.90
2023-01-04T16:44:01.021Z,8.90
2023-01-04T16:46:35.857Z,8.90
2023-01-04T16:49:05.934Z,8.90
2023-01-04T16:51:39.236Z,8.80
2023-01-04T16:54:08.717Z,8.90
2023-01-04T16:56:37.260Z,8.90
2023-01-04T16:59:04.531Z,8.90
2023-01-04T17:01:34.039Z,8.90
2023-01-04T17:04:03.363Z,8.90
2023-01-04T17:06:33.179Z,8.90
2023-01-04T17:09:03.427Z,8.90
2023-01-04T17:14:19.277Z,8.90
2023-01-04T17:16:48.195Z,8.90
2023-01-04T17:19:17.975Z,8.90
2023-01-04T17:21:47.377Z,8.80
2023-01-04T17:24:14.590Z,8.80
2023-01-04T17:26:42.047Z,8.90
2023-01-04T17:29:11.805Z,8.90
2023-01-04T17:31:40.465Z,8.80
2023-01-04T17:34:08.564Z,8.80
2023-01-04T17:36:35.324Z,8.80
2023-01-04T17:39:05.095Z,8.80
2023-01-04T17:41:36.536Z,8.80
2023-01-04T17:44:06.012Z,8.70
2023-01-04T17:46:36.915Z,8.70
2023-01-04T17:49:22.035Z,8.70
2023-01-04T17:51:53.167Z,8.70
2023-01-04T17:54:21.193Z,8.60
2023-01-04T17:56:47.898Z,8.60
2023-01-04T17:59:14.589Z,8.60
2023-01-04T18:01:43.667Z,8.60
2023-01-04T18:04:12.924Z,8.60
2023-01-04T18:06:42.057Z,8.70
2023-01-04T18:09:09.243Z,8.60
2023-01-04T18:11:37.374Z,8.50
2023-01-04T18:14:08.165Z,8.50
2023-01-04T18:16:57.459Z,8.50
2023-01-04T18:19:27.232Z,8.50
2023-01-04T18:21:54.518Z,8.50
2023-01-04T18:24:39.784Z,8.50
2023-01-04T18:27:23.053Z,8.50
2023-01-04T18:29:52.128Z,8.50
2023-01-04T18:32:24.819Z,8.50
2023-01-04T18:34:54.012Z,8.50
2023-01-04T18:37:21.083Z,8.50
2023-01-04T18:39:48.466Z,8.50
2023-01-04T18:42:15.330Z,8.50
2023-01-04T18:44:47.848Z,8.50
2023-01-04T18:47:21.158Z,8.40
2023-01-04T18:49:50.909Z,8.40
2023-01-04T18:52:18.427Z,8.50
2023-01-04T18:54:48.405Z,8.40
2023-01-04T18:57:15.209Z,8.40
2023-01-04T18:59:44.170Z,8.50
2023-01-04T19:02:19.146Z,8.40
2023-01-04T19:04:50.761Z,8.50
2023-01-04T19:07:23.151Z,8.40
2023-01-04T19:09:54.292Z,8.40
2023-01-04T19:12:20.987Z,8.40
2023-01-04T19:14:53.099Z,8.40
2023-01-04T19:17:24.273Z,9.50
2023-01-04T19:19:51.852Z,8.40
2023-01-04T19:22:23.267Z,8.50
2023-01-04T19:24:52.385Z,8.40
2023-01-04T19:27:23.659Z,8.40
2023-01-04T19:29:53.454Z,8.40
2023-01-04T19:32:22.330Z,8.40
2023-01-04T19:34:51.188Z,8.40
2023-01-04T19:37:17.930Z,8.50
2023-01-04T19:39:44.629Z,10.20
2023-01-04T19:42:11.295Z,8.40
2023-01-04T19:44:40.456Z,8.40
2023-01-04T19:47:07.121Z,8.40
2023-01-04T19:49:36.020Z,8.40
2023-01-04T19:52:05.519Z,8.40
2023-01-04T19:54:32.250Z,8.40
2023-01-04T19:57:01.206Z,8.40
2023-01-04T19:59:27.847Z,8.40
2023-01-04T20:01:54.567Z,8.50
2023-01-04T20:04:21.390Z,8.50
2023-01-04T20:06:53.190Z,8.50
2023-01-04T20:09:25.808Z,8.50
2023-01-04T20:11:53.911Z,8.40
2023-01-04T20:14:21.182Z,8.40
2023-01-04T20:16:50.163Z,8.40
2023-01-04T20:19:16.941Z,8.40
2023-01-04T20:21:43.812Z,8.40
2023-01-04T20:24:11.118Z,8.40
2023-01-04T20:26:39.143Z,8.40
2023-01-04T20:29:11.013Z,8.40
2023-01-04T20:31:42.294Z,8.50
2023-01-04T20:34:16.460Z,8.40
2023-01-04T20:36:45.628Z,8.50
2023-01-04T20:39:12.548Z,8.70
2023-01-04T20:41:59.471Z,8.50
2023-01-04T20:44:28.692Z,8.50
2023-01-04T20:46:57.643Z,8.40
2023-01-04T20:49:27.014Z,8.40
2023-01-04T20:51:57.350Z,8.40
2023-01-04T20:54:24.070Z,8.50
2023-01-04T20:56:50.744Z,8.50
2023-01-04T20:59:17.797Z,8.50
2023-01-04T21:01:48.481Z,8.50
2023-01-04T21:04:17.720Z,8.50
2023-01-04T21:06:46.825Z,8.50
2023-01-04T21:09:16.714Z,8.50
2023-01-04T21:11:48.602Z,8.50
2023-01-04T21:14:15.321Z,8.50
2023-01-04T21:16:42.065Z,8.60
2023-01-04T21:19:09.442Z,8.50
2023-01-04T21:21:36.193Z,8.50
2023-01-04T21:24:05.260Z,8.50
2023-01-04T21:26:31.926Z,8.60
2023-01-04T21:29:03.126Z,8.60
2023-01-04T21:31:29.840Z,8.60
2023-01-04T21:34:01.214Z,8.60
2023-01-04T21:36:28.456Z,8.70
2023-01-04T21:38:57.267Z,8.70
2023-01-04T21:41:25.299Z,8.70
2023-01-04T21:43:56.547Z,8.70
2023-01-04T21:46:26.887Z,8.70
2023-01-04T21:48:56.190Z,8.70
2023-01-04T21:51:23.332Z,8.70
2023-01-04T21:53:50.134Z,8.70
2023-01-04T21:56:21.832Z,8.70
2023-01-04T21:58:49.184Z,8.80
2023-01-04T22:01:29.659Z,8.80
2023-01-04T22:03:57.935Z,8.80
2023-01-04T22:06:25.713Z,8.80
2023-01-04T22:08:58.575Z,8.80
2023-01-04T22:11:25.233Z,8.80
2023-01-04T22:13:57.537Z,8.80
2023-01-04T22:16:25.280Z,8.80
2023-01-04T22:18:52.134Z,8.80
2023-01-04T22:21:22.121Z,8.80
2023-01-04T22:23:51.367Z,8.80
2023-01-04T22:26:20.297Z,8.80
2023-01-04T22:28:47.054Z,8.80
2023-01-04T22:31:14.359Z,8.90
2023-01-04T22:33:41.978Z,8.90
2023-01-04T22:36:21.137Z,8.90
2023-01-04T22:38:52.088Z,8.90
2023-01-04T22:41:22.175Z,8.90
2023-01-04T22:43:56.633Z,8.90
2023-01-04T22:46:26.863Z,8.90
2023-01-04T22:48:56.555Z,8.90
2023-01-04T22:51:24.370Z,10.60
2023-01-04T22:53:55.210Z,8.90
2023-01-04T22:56:23.179Z,8.90
2023-01-04T22:58:56.689Z,9.00
2023-01-04T23:01:25.486Z,9.00
2023-01-04T23:03:54.962Z,9.00
2023-01-04T23:06:24.798Z,9.00
2023-01-04T23:09:03.593Z,9.00
2023-01-04T23:11:33.985Z,9.00
2023-01-04T23:14:08.097Z,9.00
2023-01-04T23:16:37.182Z,9.00
2023-01-04T23:19:06.097Z,9.00
2023-01-04T23:21:33.456Z,9.00
2023-01-04T23:24:03.058Z,9.10
2023-01-04T23:26:34.265Z,9.00
2023-01-04T23:29:01.317Z,9.00
2023-01-04T23:31:30.642Z,9.00
2023-01-04T23:34:01.477Z,9.10
2023-01-04T23:36:35.755Z,9.10
2023-01-04T23:39:05.732Z,9.00
2023-01-04T23:41:44.563Z,9.00
2023-01-04T23:44:25.608Z,9.00
2023-01-04T23:46:59.259Z,9.00
2023-01-04T23:49:30.749Z,9.10
2023-01-04T23:51:58.189Z,9.00
2023-01-04T23:54:25.460Z,9.10
2023-01-04T23:56:52.723Z,9.10
2023-01-04T23:59:20.326Z,9.10
